sensor_id;sensor_type;location;lat;lon;timestamp;P1;durP1;ratioP1;P2;durP2;ratioP2
16352;SDS011;8286;51.274;9.542;2023-07-30T00:01:44;2.22;;;2.03;;
16352;SDS011;8286;51.274;9.542;2023-07-30T00:04:10;2.33;;;1.80;;
16352;SDS011;8286;51.274;9.542;2023-07-30T00:06:36;1.90;;;1.80;;
16352;SDS011;8286;51.274;9.542;2023-07-30T00:09:03;2.47;;;2.28;;
16352;SDS011;8286;51.274;9.542;2023-07-30T00:11:31;2.22;;;1.80;;
16352;SDS011;8286;51.274;9.542;2023-07-30T00:13:57;4.30;;;1.92;;
16352;SDS011;8286;51.274;9.542;2023-07-30T00:16:25;1.95;;;1.85;;
16352;SDS011;8286;51.274;9.542;2023-07-30T00:18:51;1.83;;;1.73;;
16352;SDS011;8286;51.274;9.542;2023-07-30T00:21:18;2.35;;;2.08;;
16352;SDS011;8286;51.274;9.542;2023-07-30T00:23:44;1.80;;;1.70;;
16352;SDS011;8286;51.274;9.542;2023-07-30T00:26:11;3.72;;;1.80;;
16352;SDS011;8286;51.274;9.542;2023-07-30T00:28:39;3.25;;;1.90;;
16352;SDS011;8286;51.274;9.542;2023-07-30T00:31:05;2.40;;;2.20;;
16352;SDS011;8286;51.274;9.542;2023-07-30T00:33:32;2.55;;;1.90;;
16352;SDS011;8286;51.274;9.542;2023-07-30T00:35:58;2.40;;;2.00;;
16352;SDS011;8286;51.274;9.542;2023-07-30T00:38:25;1.70;;;1.60;;
16352;SDS011;8286;51.274;9.542;2023-07-30T00:40:51;1.70;;;1.60;;
16352;SDS011;8286;51.274;9.542;2023-07-30T00:43:18;3.17;;;2.22;;
16352;SDS011;8286;51.274;9.542;2023-07-30T00:45:46;1.85;;;1.75;;
16352;SDS011;8286;51.274;9.542;2023-07-30T00:48:12;2.75;;;1.95;;
16352;SDS011;8286;51.274;9.542;2023-07-30T00:50:39;1.90;;;1.80;;
16352;SDS011;8286;51.274;9.542;2023-07-30T00:53:07;2.45;;;2.20;;
16352;SDS011;8286;51.274;9.542;2023-07-30T00:55:35;2.28;;;2.10;;
16352;SDS011;8286;51.274;9.542;2023-07-30T00:58:01;2.90;;;1.88;;
16352;SDS011;8286;51.274;9.542;2023-07-30T01:00:28;2.47;;;1.90;;
16352;SDS011;8286;51.274;9.542;2023-07-30T01:02:58;4.88;;;2.50;;
16352;SDS011;8286;51.274;9.542;2023-07-30T01:05:25;2.00;;;1.90;;
16352;SDS011;8286;51.274;9.542;2023-07-30T01:07:52;2.50;;;1.80;;
16352;SDS011;8286;51.274;9.542;2023-07-30T01:10:18;3.33;;;1.67;;
16352;SDS011;8286;51.274;9.542;2023-07-30T01:12:45;3.53;;;2.05;;
16352;SDS011;8286;51.274;9.542;2023-07-30T01:15:12;2.15;;;1.95;;
16352;SDS011;8286;51.274;9.542;2023-07-30T01:17:39;1.85;;;1.75;;
16352;SDS011;8286;51.274;9.542;2023-07-30T01:20:07;2.05;;;1.85;;
16352;SDS011;8286;51.274;9.542;2023-07-30T01:22:35;2.05;;;1.90;;
16352;SDS011;8286;51.274;9.542;2023-07-30T01:25:02;1.70;;;1.60;;
16352;SDS011;8286;51.274;9.542;2023-07-30T01:27:29;3.22;;;2.28;;
16352;SDS011;8286;51.274;9.542;2023-07-30T01:29:58;3.05;;;1.92;;
16352;SDS011;8286;51.274;9.542;2023-07-30T01:32:28;2.08;;;1.98;;
16352;SDS011;8286;51.274;9.542;2023-07-30T01:34:55;2.10;;;2.00;;
16352;SDS011;8286;51.274;9.542;2023-07-30T01:37:23;2.13;;;2.00;;
16352;SDS011;8286;51.274;9.542;2023-07-30T01:39:51;1.85;;;1.70;;
16352;SDS011;8286;51.274;9.542;2023-07-30T01:42:18;1.88;;;1.77;;
16352;SDS011;8286;51.274;9.542;2023-07-30T01:44:44;3.92;;;1.73;;
16352;SDS011;8286;51.274;9.542;2023-07-30T01:47:11;4.35;;;2.00;;
16352;SDS011;8286;51.274;9.542;2023-07-30T01:49:37;2.30;;;1.90;;
16352;SDS011;8286;51.274;9.542;2023-07-30T01:52:04;4.43;;;1.95;;
16352;SDS011;8286;51.274;9.542;2023-07-30T01:54:31;2.28;;;2.08;;
16352;SDS011;8286;51.274;9.542;2023-07-30T01:56:59;2.50;;;2.30;;
16352;SDS011;8286;51.274;9.542;2023-07-30T01:59:25;2.15;;;1.98;;
16352;SDS011;8286;51.274;9.542;2023-07-30T02:01:52;2.20;;;2.00;;
16352;SDS011;8286;51.274;9.542;2023-07-30T02:04:18;3.08;;;2.10;;
16352;SDS011;8286;51.274;9.542;2023-07-30T02:06:45;3.10;;;2.30;;
16352;SDS011;8286;51.274;9.542;2023-07-30T02:09:11;2.17;;;1.98;;
16352;SDS011;8286;51.274;9.542;2023-07-30T02:11:38;3.95;;;2.20;;
16352;SDS011;8286;51.274;9.542;2023-07-30T02:14:06;2.45;;;2.00;;
16352;SDS011;8286;51.274;9.542;2023-07-30T02:16:32;2.15;;;1.92;;
16352;SDS011;8286;51.274;9.542;2023-07-30T02:18:59;2.50;;;2.30;;
16352;SDS011;8286;51.274;9.542;2023-07-30T02:21:25;1.80;;;1.70;;
16352;SDS011;8286;51.274;9.542;2023-07-30T02:23:52;2.10;;;2.00;;
16352;SDS011;8286;51.274;9.542;2023-07-30T02:26:18;2.30;;;2.10;;
16352;SDS011;8286;51.274;9.542;2023-07-30T02:28:45;2.28;;;2.08;;
16352;SDS011;8286;51.274;9.542;2023-07-30T02:31:13;2.50;;;2.00;;
16352;SDS011;8286;51.274;9.542;2023-07-30T02:33:39;2.15;;;1.95;;
16352;SDS011;8286;51.274;9.542;2023-07-30T02:36:06;3.13;;;2.10;;
16352;SDS011;8286;51.274;9.542;2023-07-30T02:38:32;2.58;;;2.10;;
16352;SDS011;8286;51.274;9.542;2023-07-30T02:40:59;2.55;;;2.25;;
16352;SDS011;8286;51.274;9.542;2023-07-30T02:43:25;2.58;;;2.38;;
16352;SDS011;8286;51.274;9.542;2023-07-30T02:45:52;2.20;;;2.10;;
16352;SDS011;8286;51.274;9.542;2023-07-30T02:48:20;2.45;;;2.25;;
16352;SDS011;8286;51.274;9.542;2023-07-30T02:50:46;2.50;;;2.30;;
16352;SDS011;8286;51.274;9.542;2023-07-30T02:53:13;2.80;;;2.60;;
16352;SDS011;8286;51.274;9.542;2023-07-30T02:55:39;3.20;;;2.90;;
16352;SDS011;8286;51.274;9.542;2023-07-30T02:58:06;2.20;;;2.03;;
16352;SDS011;8286;51.274;9.542;2023-07-30T03:00:32;3.05;;;2.30;;
16352;SDS011;8286;51.274;9.542;2023-07-30T03:02:59;3.45;;;2.35;;
16352;SDS011;8286;51.274;9.542;2023-07-30T03:05:27;2.30;;;2.10;;
16352;SDS011;8286;51.274;9.542;2023-07-30T03:07:53;3.78;;;2.33;;
16352;SDS011;8286;51.274;9.542;2023-07-30T03:10:20;2.38;;;2.17;;
16352;SDS011;8286;51.274;9.542;2023-07-30T03:12:46;5.05;;;2.58;;
16352;SDS011;8286;51.274;9.542;2023-07-30T03:15:13;2.75;;;2.53;;
16352;SDS011;8286;51.274;9.542;2023-07-30T03:17:40;3.47;;;3.03;;
16352;SDS011;8286;51.274;9.542;2023-07-30T03:20:07;3.65;;;2.70;;
16352;SDS011;8286;51.274;9.542;2023-07-30T03:22:36;3.65;;;2.65;;
16352;SDS011;8286;51.274;9.542;2023-07-30T03:25:02;2.58;;;2.38;;
16352;SDS011;8286;51.274;9.542;2023-07-30T03:27:30;2.78;;;2.50;;
16352;SDS011;8286;51.274;9.542;2023-07-30T03:29:56;2.92;;;2.63;;
16352;SDS011;8286;51.274;9.542;2023-07-30T03:32:23;3.72;;;2.78;;
16352;SDS011;8286;51.274;9.542;2023-07-30T03:34:49;2.67;;;2.47;;
16352;SDS011;8286;51.274;9.542;2023-07-30T03:37:16;2.90;;;2.67;;
16352;SDS011;8286;51.274;9.542;2023-07-30T03:39:44;2.70;;;2.50;;
16352;SDS011;8286;51.274;9.542;2023-07-30T03:42:10;4.55;;;3.22;;
16352;SDS011;8286;51.274;9.542;2023-07-30T03:44:37;2.58;;;2.38;;
16352;SDS011;8286;51.274;9.542;2023-07-30T03:47:03;2.88;;;2.67;;
16352;SDS011;8286;51.274;9.542;2023-07-30T03:49:30;3.05;;;2.75;;
16352;SDS011;8286;51.274;9.542;2023-07-30T03:51:56;2.90;;;2.70;;
16352;SDS011;8286;51.274;9.542;2023-07-30T03:54:23;3.40;;;3.03;;
16352;SDS011;8286;51.274;9.542;2023-07-30T03:56:51;3.35;;;3.05;;
16352;SDS011;8286;51.274;9.542;2023-07-30T03:59:17;3.38;;;2.90;;
16352;SDS011;8286;51.274;9.542;2023-07-30T04:01:44;3.17;;;2.88;;
16352;SDS011;8286;51.274;9.542;2023-07-30T04:04:10;3.45;;;2.65;;
16352;SDS011;8286;51.274;9.542;2023-07-30T04:06:37;3.72;;;2.97;;
16352;SDS011;8286;51.274;9.542;2023-07-30T04:09:03;4.22;;;2.70;;
16352;SDS011;8286;51.274;9.542;2023-07-30T04:11:30;2.95;;;2.67;;
16352;SDS011;8286;51.274;9.542;2023-07-30T04:13:58;3.17;;;2.58;;
16352;SDS011;8286;51.274;9.542;2023-07-30T04:16:25;3.03;;;2.72;;
16352;SDS011;8286;51.274;9.542;2023-07-30T04:18:51;2.80;;;2.60;;
16352;SDS011;8286;51.274;9.542;2023-07-30T04:21:18;4.28;;;2.50;;
16352;SDS011;8286;51.274;9.542;2023-07-30T04:23:44;3.58;;;2.45;;
16352;SDS011;8286;51.274;9.542;2023-07-30T04:26:11;4.82;;;2.65;;
16352;SDS011;8286;51.274;9.542;2023-07-30T04:28:37;2.72;;;2.53;;
16352;SDS011;8286;51.274;9.542;2023-07-30T04:31:05;2.80;;;2.33;;
16352;SDS011;8286;51.274;9.542;2023-07-30T04:33:32;4.93;;;2.35;;
16352;SDS011;8286;51.274;9.542;2023-07-30T04:35:58;2.70;;;2.50;;
16352;SDS011;8286;51.274;9.542;2023-07-30T04:38:25;5.07;;;3.17;;
16352;SDS011;8286;51.274;9.542;2023-07-30T04:40:51;2.92;;;2.72;;
16352;SDS011;8286;51.274;9.542;2023-07-30T04:43:18;3.35;;;2.67;;
16352;SDS011;8286;51.274;9.542;2023-07-30T04:45:44;3.03;;;2.78;;
16352;SDS011;8286;51.274;9.542;2023-07-30T04:48:12;5.07;;;2.90;;
16352;SDS011;8286;51.274;9.542;2023-07-30T04:50:39;2.85;;;2.63;;
16352;SDS011;8286;51.274;9.542;2023-07-30T04:53:07;2.75;;;2.40;;
16352;SDS011;8286;51.274;9.542;2023-07-30T04:55:33;3.45;;;2.55;;
16352;SDS011;8286;51.274;9.542;2023-07-30T04:58:00;6.10;;;3.10;;
16352;SDS011;8286;51.274;9.542;2023-07-30T05:00:27;3.50;;;3.20;;
16352;SDS011;8286;51.274;9.542;2023-07-30T05:02:53;5.82;;;2.70;;
16352;SDS011;8286;51.274;9.542;2023-07-30T05:05:21;7.32;;;3.13;;
16352;SDS011;8286;51.274;9.542;2023-07-30T05:07:48;3.88;;;2.47;;
16352;SDS011;8286;51.274;9.542;2023-07-30T05:10:14;3.65;;;2.75;;
16352;SDS011;8286;51.274;9.542;2023-07-30T05:12:41;2.80;;;2.60;;
16352;SDS011;8286;51.274;9.542;2023-07-30T05:15:08;4.40;;;3.03;;
16352;SDS011;8286;51.274;9.542;2023-07-30T05:17:34;3.15;;;2.92;;
16352;SDS011;8286;51.274;9.542;2023-07-30T05:20:01;7.15;;;3.00;;
16352;SDS011;8286;51.274;9.542;2023-07-30T05:22:29;3.45;;;2.95;;
16352;SDS011;8286;51.274;9.542;2023-07-30T05:24:55;3.33;;;2.72;;
16352;SDS011;8286;51.274;9.542;2023-07-30T05:27:22;2.55;;;2.35;;
16352;SDS011;8286;51.274;9.542;2023-07-30T05:29:49;3.25;;;2.70;;
16352;SDS011;8286;51.274;9.542;2023-07-30T05:32:15;2.45;;;2.25;;
16352;SDS011;8286;51.274;9.542;2023-07-30T05:34:42;4.35;;;2.50;;
16352;SDS011;8286;51.274;9.542;2023-07-30T05:37:08;2.83;;;2.42;;
16352;SDS011;8286;51.274;9.542;2023-07-30T05:39:36;2.70;;;2.45;;
16352;SDS011;8286;51.274;9.542;2023-07-30T05:42:03;2.65;;;2.42;;
16352;SDS011;8286;51.274;9.542;2023-07-30T05:44:30;3.10;;;2.80;;
16352;SDS011;8286;51.274;9.542;2023-07-30T05:46:56;4.72;;;2.50;;
16352;SDS011;8286;51.274;9.542;2023-07-30T05:49:23;3.72;;;2.83;;
16352;SDS011;8286;51.274;9.542;2023-07-30T05:51:50;2.50;;;2.30;;
16352;SDS011;8286;51.274;9.542;2023-07-30T05:54:17;3.38;;;2.42;;
16352;SDS011;8286;51.274;9.542;2023-07-30T05:56:45;2.83;;;2.63;;
16352;SDS011;8286;51.274;9.542;2023-07-30T05:59:11;2.67;;;2.47;;
16352;SDS011;8286;51.274;9.542;2023-07-30T06:01:39;2.78;;;2.40;;
16352;SDS011;8286;51.274;9.542;2023-07-30T06:04:06;4.65;;;2.47;;
16352;SDS011;8286;51.274;9.542;2023-07-30T06:06:32;6.00;;;2.08;;
16352;SDS011;8286;51.274;9.542;2023-07-30T06:08:59;3.55;;;1.90;;
16352;SDS011;8286;51.274;9.542;2023-07-30T06:11:25;5.20;;;2.40;;
16352;SDS011;8286;51.274;9.542;2023-07-30T06:13:54;3.13;;;2.30;;
16352;SDS011;8286;51.274;9.542;2023-07-30T06:16:20;1.95;;;1.85;;
16352;SDS011;8286;51.274;9.542;2023-07-30T06:18:47;3.78;;;1.88;;
16352;SDS011;8286;51.274;9.542;2023-07-30T06:21:13;3.15;;;2.25;;
16352;SDS011;8286;51.274;9.542;2023-07-30T06:23:40;2.85;;;2.13;;
16352;SDS011;8286;51.274;9.542;2023-07-30T06:26:06;2.80;;;1.75;;
16352;SDS011;8286;51.274;9.542;2023-07-30T06:28:33;3.55;;;2.10;;
16352;SDS011;8286;51.274;9.542;2023-07-30T06:31:01;6.32;;;2.30;;
16352;SDS011;8286;51.274;9.542;2023-07-30T06:33:27;3.70;;;2.10;;
16352;SDS011;8286;51.274;9.542;2023-07-30T06:35:54;2.20;;;2.10;;
16352;SDS011;8286;51.274;9.542;2023-07-30T06:38:21;3.58;;;2.38;;
16352;SDS011;8286;51.274;9.542;2023-07-30T06:40:48;4.35;;;2.28;;
16352;SDS011;8286;51.274;9.542;2023-07-30T06:43:14;2.83;;;2.00;;
16352;SDS011;8286;51.274;9.542;2023-07-30T06:45:41;4.15;;;2.05;;
16352;SDS011;8286;51.274;9.542;2023-07-30T06:48:08;2.80;;;2.22;;
16352;SDS011;8286;51.274;9.542;2023-07-30T06:50:35;3.05;;;2.05;;
16352;SDS011;8286;51.274;9.542;2023-07-30T06:53:01;3.05;;;2.40;;
16352;SDS011;8286;51.274;9.542;2023-07-30T06:55:28;3.20;;;2.17;;
16352;SDS011;8286;51.274;9.542;2023-07-30T06:57:54;4.90;;;2.33;;
16352;SDS011;8286;51.274;9.542;2023-07-30T07:00:21;3.63;;;2.50;;
16352;SDS011;8286;51.274;9.542;2023-07-30T07:02:48;4.65;;;2.65;;
16352;SDS011;8286;51.274;9.542;2023-07-30T07:05:15;3.30;;;2.15;;
16352;SDS011;8286;51.274;9.542;2023-07-30T07:07:42;5.50;;;2.63;;
16352;SDS011;8286;51.274;9.542;2023-07-30T07:10:09;8.90;;;3.35;;
16352;SDS011;8286;51.274;9.542;2023-07-30T07:12:36;5.85;;;2.55;;
16352;SDS011;8286;51.274;9.542;2023-07-30T07:15:03;3.03;;;2.70;;
16352;SDS011;8286;51.274;9.542;2023-07-30T07:17:31;4.68;;;2.85;;
16352;SDS011;8286;51.274;9.542;2023-07-30T07:19:57;7.22;;;3.10;;
16352;SDS011;8286;51.274;9.542;2023-07-30T07:22:25;4.53;;;2.80;;
16352;SDS011;8286;51.274;9.542;2023-07-30T07:24:52;6.55;;;3.10;;
16352;SDS011;8286;51.274;9.542;2023-07-30T07:27:18;4.38;;;3.20;;
16352;SDS011;8286;51.274;9.542;2023-07-30T07:29:45;4.50;;;3.17;;
16352;SDS011;8286;51.274;9.542;2023-07-30T07:32:12;4.57;;;3.67;;
16352;SDS011;8286;51.274;9.542;2023-07-30T07:34:38;5.90;;;3.08;;
16352;SDS011;8286;51.274;9.542;2023-07-30T07:37:05;3.90;;;3.03;;
16352;SDS011;8286;51.274;9.542;2023-07-30T07:39:33;4.13;;;3.03;;
16352;SDS011;8286;51.274;9.542;2023-07-30T07:42:00;3.03;;;2.70;;
16352;SDS011;8286;51.274;9.542;2023-07-30T07:44:26;3.75;;;3.45;;
16352;SDS011;8286;51.274;9.542;2023-07-30T07:46:53;5.43;;;3.25;;
16352;SDS011;8286;51.274;9.542;2023-07-30T07:49:19;4.97;;;3.28;;
16352;SDS011;8286;51.274;9.542;2023-07-30T07:51:46;4.43;;;3.17;;
16352;SDS011;8286;51.274;9.542;2023-07-30T07:54:12;3.72;;;3.20;;
16352;SDS011;8286;51.274;9.542;2023-07-30T07:56:40;5.50;;;3.50;;
16352;SDS011;8286;51.274;9.542;2023-07-30T07:59:07;4.47;;;3.30;;
16352;SDS011;8286;51.274;9.542;2023-07-30T08:01:33;4.28;;;3.83;;
16352;SDS011;8286;51.274;9.542;2023-07-30T08:04:00;3.85;;;3.45;;
16352;SDS011;8286;51.274;9.542;2023-07-30T08:06:26;4.07;;;3.20;;
16352;SDS011;8286;51.274;9.542;2023-07-30T08:08:53;3.90;;;3.50;;
16352;SDS011;8286;51.274;9.542;2023-07-30T08:11:19;4.38;;;3.97;;
16352;SDS011;8286;51.274;9.542;2023-07-30T08:13:47;5.28;;;3.70;;
16352;SDS011;8286;51.274;9.542;2023-07-30T08:16:13;8.30;;;3.83;;
16352;SDS011;8286;51.274;9.542;2023-07-30T08:18:40;7.40;;;4.28;;
16352;SDS011;8286;51.274;9.542;2023-07-30T08:21:06;4.20;;;3.75;;
16352;SDS011;8286;51.274;9.542;2023-07-30T08:23:33;6.28;;;3.83;;
16352;SDS011;8286;51.274;9.542;2023-07-30T08:25:59;6.47;;;3.80;;
16352;SDS011;8286;51.274;9.542;2023-07-30T08:28:26;3.95;;;3.60;;
16352;SDS011;8286;51.274;9.542;2023-07-30T08:30:57;6.07;;;3.75;;
16352;SDS011;8286;51.274;9.542;2023-07-30T08:33:26;4.25;;;3.92;;
16352;SDS011;8286;51.274;9.542;2023-07-30T08:35:54;5.13;;;3.60;;
16352;SDS011;8286;51.274;9.542;2023-07-30T08:38:21;3.42;;;3.22;;
16352;SDS011;8286;51.274;9.542;2023-07-30T08:40:47;7.80;;;4.20;;
16352;SDS011;8286;51.274;9.542;2023-07-30T08:43:15;70.97;;;14.35;;
16352;SDS011;8286;51.274;9.542;2023-07-30T08:45:41;4.47;;;4.18;;
16352;SDS011;8286;51.274;9.542;2023-07-30T08:48:10;6.70;;;3.85;;
16352;SDS011;8286;51.274;9.542;2023-07-30T08:50:37;4.18;;;3.78;;
16352;SDS011;8286;51.274;9.542;2023-07-30T08:53:04;4.13;;;3.75;;
16352;SDS011;8286;51.274;9.542;2023-07-30T08:55:32;4.28;;;3.88;;
16352;SDS011;8286;51.274;9.542;2023-07-30T08:57:59;7.50;;;4.05;;
16352;SDS011;8286;51.274;9.542;2023-07-30T09:00:28;5.57;;;3.80;;
16352;SDS011;8286;51.274;9.542;2023-07-30T09:02:58;7.55;;;3.78;;
16352;SDS011;8286;51.274;9.542;2023-07-30T09:05:27;4.80;;;3.88;;
16352;SDS011;8286;51.274;9.542;2023-07-30T09:07:54;7.20;;;4.00;;
16352;SDS011;8286;51.274;9.542;2023-07-30T09:10:21;4.93;;;4.25;;
16352;SDS011;8286;51.274;9.542;2023-07-30T09:12:52;5.53;;;4.70;;
16352;SDS011;8286;51.274;9.542;2023-07-30T09:15:19;9.00;;;5.68;;
16352;SDS011;8286;51.274;9.542;2023-07-30T09:17:45;7.90;;;6.05;;
16352;SDS011;8286;51.274;9.542;2023-07-30T09:20:12;9.65;;;6.78;;
16352;SDS011;8286;51.274;9.542;2023-07-30T09:22:40;10.75;;;7.10;;
16352;SDS011;8286;51.274;9.542;2023-07-30T09:25:07;13.93;;;7.35;;
16352;SDS011;8286;51.274;9.542;2023-07-30T09:27:33;13.65;;;7.85;;
16352;SDS011;8286;51.274;9.542;2023-07-30T09:30:01;10.70;;;7.65;;
16352;SDS011;8286;51.274;9.542;2023-07-30T09:32:30;11.25;;;7.05;;
16352;SDS011;8286;51.274;9.542;2023-07-30T09:35:03;11.32;;;8.55;;
16352;SDS011;8286;51.274;9.542;2023-07-30T09:37:30;13.05;;;8.02;;
16352;SDS011;8286;51.274;9.542;2023-07-30T09:39:58;16.38;;;8.43;;
16352;SDS011;8286;51.274;9.542;2023-07-30T09:42:26;11.50;;;7.70;;
16352;SDS011;8286;51.274;9.542;2023-07-30T09:44:53;10.95;;;7.57;;
16352;SDS011;8286;51.274;9.542;2023-07-30T09:47:19;11.15;;;7.15;;
16352;SDS011;8286;51.274;9.542;2023-07-30T09:49:46;10.18;;;5.85;;
16352;SDS011;8286;51.274;9.542;2023-07-30T09:52:12;10.93;;;7.53;;
16352;SDS011;8286;51.274;9.542;2023-07-30T09:54:40;10.00;;;6.45;;
16352;SDS011;8286;51.274;9.542;2023-07-30T09:57:08;11.85;;;6.65;;
16352;SDS011;8286;51.274;9.542;2023-07-30T09:59:34;10.38;;;6.68;;
16352;SDS011;8286;51.274;9.542;2023-07-30T10:02:03;8.93;;;6.47;;
16352;SDS011;8286;51.274;9.542;2023-07-30T10:04:30;12.25;;;6.97;;
16352;SDS011;8286;51.274;9.542;2023-07-30T10:06:58;10.18;;;6.18;;
16352;SDS011;8286;51.274;9.542;2023-07-30T10:09:29;14.80;;;6.75;;
16352;SDS011;8286;51.274;9.542;2023-07-30T10:11:57;8.85;;;6.15;;
16352;SDS011;8286;51.274;9.542;2023-07-30T10:14:26;12.43;;;7.32;;
16352;SDS011;8286;51.274;9.542;2023-07-30T10:16:53;10.13;;;6.43;;
16352;SDS011;8286;51.274;9.542;2023-07-30T10:19:23;11.88;;;7.57;;
16352;SDS011;8286;51.274;9.542;2023-07-30T10:21:49;14.40;;;8.02;;
16352;SDS011;8286;51.274;9.542;2023-07-30T10:24:16;11.80;;;7.90;;
16352;SDS011;8286;51.274;9.542;2023-07-30T10:26:43;11.82;;;7.20;;
16352;SDS011;8286;51.274;9.542;2023-07-30T10:29:10;23.25;;;8.35;;
16352;SDS011;8286;51.274;9.542;2023-07-30T10:31:42;13.07;;;6.72;;
16352;SDS011;8286;51.274;9.542;2023-07-30T10:34:10;11.65;;;5.82;;
16352;SDS011;8286;51.274;9.542;2023-07-30T10:36:40;10.90;;;6.05;;
16352;SDS011;8286;51.274;9.542;2023-07-30T10:39:16;12.38;;;4.97;;
16352;SDS011;8286;51.274;9.542;2023-07-30T10:41:44;8.90;;;5.32;;
16352;SDS011;8286;51.274;9.542;2023-07-30T10:44:23;7.50;;;4.55;;
16352;SDS011;8286;51.274;9.542;2023-07-30T10:46:53;7.63;;;4.32;;
16352;SDS011;8286;51.274;9.542;2023-07-30T10:49:20;7.05;;;3.30;;
16352;SDS011;8286;51.274;9.542;2023-07-30T10:51:47;6.35;;;3.22;;
16352;SDS011;8286;51.274;9.542;2023-07-30T10:54:13;6.85;;;3.00;;
16352;SDS011;8286;51.274;9.542;2023-07-30T10:56:41;7.47;;;3.00;;
16352;SDS011;8286;51.274;9.542;2023-07-30T10:59:08;7.32;;;3.00;;
16352;SDS011;8286;51.274;9.542;2023-07-30T11:01:37;5.75;;;3.28;;
16352;SDS011;8286;51.274;9.542;2023-07-30T11:04:07;8.90;;;3.55;;
16352;SDS011;8286;51.274;9.542;2023-07-30T11:06:34;3.38;;;2.40;;
16352;SDS011;8286;51.274;9.542;2023-07-30T11:09:01;7.07;;;3.00;;
16352;SDS011;8286;51.274;9.542;2023-07-30T11:11:27;3.17;;;2.80;;
16352;SDS011;8286;51.274;9.542;2023-07-30T11:13:54;6.88;;;3.15;;
16352;SDS011;8286;51.274;9.542;2023-07-30T11:16:20;7.80;;;2.92;;
16352;SDS011;8286;51.274;9.542;2023-07-30T11:18:47;4.38;;;3.03;;
16352;SDS011;8286;51.274;9.542;2023-07-30T11:21:15;6.53;;;2.83;;
16352;SDS011;8286;51.274;9.542;2023-07-30T11:23:43;3.22;;;2.60;;
16352;SDS011;8286;51.274;9.542;2023-07-30T11:26:13;4.90;;;2.92;;
16352;SDS011;8286;51.274;9.542;2023-07-30T11:28:40;5.20;;;2.53;;
16352;SDS011;8286;51.274;9.542;2023-07-30T11:31:07;2.95;;;2.17;;
16352;SDS011;8286;51.274;9.542;2023-07-30T11:33:35;2.50;;;2.30;;
16352;SDS011;8286;51.274;9.542;2023-07-30T11:36:02;3.63;;;2.30;;
16352;SDS011;8286;51.274;9.542;2023-07-30T11:38:30;2.65;;;2.42;;
16352;SDS011;8286;51.274;9.542;2023-07-30T11:40:57;2.58;;;2.05;;
16352;SDS011;8286;51.274;9.542;2023-07-30T11:43:24;2.25;;;2.05;;
16352;SDS011;8286;51.274;9.542;2023-07-30T11:46:05;4.38;;;2.58;;
16352;SDS011;8286;51.274;9.542;2023-07-30T11:48:33;2.25;;;1.60;;
16352;SDS011;8286;51.274;9.542;2023-07-30T11:50:59;5.45;;;2.30;;
16352;SDS011;8286;51.274;9.542;2023-07-30T11:56:15;3.95;;;1.95;;
16352;SDS011;8286;51.274;9.542;2023-07-30T11:58:46;3.47;;;2.58;;
16352;SDS011;8286;51.274;9.542;2023-07-30T12:01:13;2.28;;;2.08;;
16352;SDS011;8286;51.274;9.542;2023-07-30T12:03:40;2.75;;;1.80;;
16352;SDS011;8286;51.274;9.542;2023-07-30T12:06:07;4.25;;;2.60;;
16352;SDS011;8286;51.274;9.542;2023-07-30T12:08:34;5.60;;;2.30;;
16352;SDS011;8286;51.274;9.542;2023-07-30T12:11:03;4.65;;;3.00;;
16352;SDS011;8286;51.274;9.542;2023-07-30T12:13:30;6.13;;;2.53;;
16352;SDS011;8286;51.274;9.542;2023-07-30T12:15:57;5.78;;;2.63;;
16352;SDS011;8286;51.274;9.542;2023-07-30T12:18:24;4.50;;;2.70;;
16352;SDS011;8286;51.274;9.542;2023-07-30T12:20:51;2.50;;;2.30;;
16352;SDS011;8286;51.274;9.542;2023-07-30T12:23:19;8.30;;;2.97;;
16352;SDS011;8286;51.274;9.542;2023-07-30T12:25:46;2.85;;;2.63;;
16352;SDS011;8286;51.274;9.542;2023-07-30T12:28:14;5.15;;;3.30;;
16352;SDS011;8286;51.274;9.542;2023-07-30T12:30:40;3.10;;;2.90;;
16352;SDS011;8286;51.274;9.542;2023-07-30T12:33:07;3.40;;;3.15;;
16352;SDS011;8286;51.274;9.542;2023-07-30T12:35:33;3.28;;;2.92;;
16352;SDS011;8286;51.274;9.542;2023-07-30T12:38:00;2.95;;;2.47;;
16352;SDS011;8286;51.274;9.542;2023-07-30T12:40:27;6.18;;;2.65;;
16352;SDS011;8286;51.274;9.542;2023-07-30T12:42:58;3.05;;;2.75;;
16352;SDS011;8286;51.274;9.542;2023-07-30T12:45:27;2.72;;;2.50;;
16352;SDS011;8286;51.274;9.542;2023-07-30T12:47:54;6.80;;;3.35;;
16352;SDS011;8286;51.274;9.542;2023-07-30T12:50:20;3.00;;;2.80;;
16352;SDS011;8286;51.274;9.542;2023-07-30T12:52:47;3.20;;;2.95;;
16352;SDS011;8286;51.274;9.542;2023-07-30T12:55:13;4.80;;;2.75;;
16352;SDS011;8286;51.274;9.542;2023-07-30T12:57:40;3.40;;;2.75;;
16352;SDS011;8286;51.274;9.542;2023-07-30T13:00:07;5.65;;;3.00;;
16352;SDS011;8286;51.274;9.542;2023-07-30T13:02:35;4.00;;;3.03;;
16352;SDS011;8286;51.274;9.542;2023-07-30T13:05:02;3.08;;;2.85;;
16352;SDS011;8286;51.274;9.542;2023-07-30T13:07:29;3.53;;;2.80;;
16352;SDS011;8286;51.274;9.542;2023-07-30T13:10:02;5.93;;;2.90;;
16352;SDS011;8286;51.274;9.542;2023-07-30T13:12:30;4.47;;;2.78;;
16352;SDS011;8286;51.274;9.542;2023-07-30T13:14:56;4.90;;;3.05;;
16352;SDS011;8286;51.274;9.542;2023-07-30T13:17:23;7.25;;;3.67;;
16352;SDS011;8286;51.274;9.542;2023-07-30T13:19:51;3.20;;;3.00;;
16352;SDS011;8286;51.274;9.542;2023-07-30T13:22:17;3.90;;;2.85;;
16352;SDS011;8286;51.274;9.542;2023-07-30T13:24:44;4.88;;;3.60;;
16352;SDS011;8286;51.274;9.542;2023-07-30T13:27:10;3.88;;;3.55;;
16352;SDS011;8286;51.274;9.542;2023-07-30T13:29:37;3.95;;;3.55;;
16352;SDS011;8286;51.274;9.542;2023-07-30T13:32:04;4.47;;;3.72;;
16352;SDS011;8286;51.274;9.542;2023-07-30T13:34:31;7.72;;;3.97;;
16352;SDS011;8286;51.274;9.542;2023-07-30T13:36:59;6.78;;;3.63;;
16352;SDS011;8286;51.274;9.542;2023-07-30T13:39:26;3.70;;;3.50;;
16352;SDS011;8286;51.274;9.542;2023-07-30T13:41:53;5.97;;;3.53;;
16352;SDS011;8286;51.274;9.542;2023-07-30T13:44:19;4.85;;;2.80;;
16352;SDS011;8286;51.274;9.542;2023-07-30T13:46:46;8.73;;;3.20;;
16352;SDS011;8286;51.274;9.542;2023-07-30T13:49:12;4.97;;;3.03;;
16352;SDS011;8286;51.274;9.542;2023-07-30T13:51:39;3.72;;;3.17;;
16352;SDS011;8286;51.274;9.542;2023-07-30T13:54:07;6.07;;;2.90;;
16352;SDS011;8286;51.274;9.542;2023-07-30T13:56:33;2.53;;;2.33;;
16352;SDS011;8286;51.274;9.542;2023-07-30T13:59:00;3.65;;;2.13;;
16352;SDS011;8286;51.274;9.542;2023-07-30T14:01:27;2.35;;;1.92;;
16352;SDS011;8286;51.274;9.542;2023-07-30T14:03:54;5.72;;;2.40;;
16352;SDS011;8286;51.274;9.542;2023-07-30T14:06:21;5.13;;;2.15;;
16352;SDS011;8286;51.274;9.542;2023-07-30T14:08:47;5.35;;;1.60;;
16352;SDS011;8286;51.274;9.542;2023-07-30T14:11:16;3.28;;;1.60;;
16352;SDS011;8286;51.274;9.542;2023-07-30T14:13:42;3.40;;;1.20;;
16352;SDS011;8286;51.274;9.542;2023-07-30T14:16:09;4.18;;;1.55;;
16352;SDS011;8286;51.274;9.542;2023-07-30T14:18:35;1.63;;;1.25;;
16352;SDS011;8286;51.274;9.542;2023-07-30T14:21:04;1.65;;;1.55;;
16352;SDS011;8286;51.274;9.542;2023-07-30T14:23:30;9.43;;;1.40;;
16352;SDS011;8286;51.274;9.542;2023-07-30T14:25:57;1.52;;;1.30;;
16352;SDS011;8286;51.274;9.542;2023-07-30T14:28:25;1.20;;;1.10;;
16352;SDS011;8286;51.274;9.542;2023-07-30T14:30:51;3.83;;;1.25;;
16352;SDS011;8286;51.274;9.542;2023-07-30T14:33:18;2.58;;;1.27;;
16352;SDS011;8286;51.274;9.542;2023-07-30T14:35:44;2.63;;;1.50;;
16352;SDS011;8286;51.274;9.542;2023-07-30T14:38:11;6.93;;;1.65;;
16352;SDS011;8286;51.274;9.542;2023-07-30T14:40:38;2.70;;;1.30;;
16352;SDS011;8286;51.274;9.542;2023-07-30T14:43:04;3.80;;;1.88;;
16352;SDS011;8286;51.274;9.542;2023-07-30T14:45:32;5.75;;;1.73;;
16352;SDS011;8286;51.274;9.542;2023-07-30T14:47:59;2.65;;;1.20;;
16352;SDS011;8286;51.274;9.542;2023-07-30T14:50:26;1.85;;;1.30;;
16352;SDS011;8286;51.274;9.542;2023-07-30T14:52:52;2.17;;;0.98;;
16352;SDS011;8286;51.274;9.542;2023-07-30T14:55:19;1.13;;;0.90;;
16352;SDS011;8286;51.274;9.542;2023-07-30T14:57:45;2.83;;;1.20;;
16352;SDS011;8286;51.274;9.542;2023-07-30T15:00:12;2.40;;;1.00;;
16352;SDS011;8286;51.274;9.542;2023-07-30T15:02:42;2.17;;;1.23;;